createdAt,value
2023-04-27T00:01:49.996Z,9.09
2023-04-27T00:04:28.381Z,9.07
2023-04-27T00:06:56.582Z,9.05
2023-04-27T00:09:25.923Z,9.04
2023-04-27T00:11:53.887Z,9.00
2023-04-27T00:14:21.955Z,8.98
2023-04-27T00:16:50.031Z,8.97
2023-04-27T00:19:18.160Z,8.94
2023-04-27T00:21:46.474Z,8.92
2023-04-27T00:24:14.311Z,8.90
2023-04-27T00:26:46.122Z,8.91
2023-04-27T00:29:14.196Z,8.82
2023-04-27T00:31:42.304Z,8.85
2023-04-27T00:34:10.243Z,8.82
2023-04-27T00:36:43.558Z,8.81
2023-04-27T00:39:11.721Z,8.80
2023-04-27T00:41:40.472Z,8.79
2023-04-27T00:44:09.704Z,8.78
2023-04-27T00:46:37.799Z,8.75
2023-04-27T00:49:06.359Z,8.74
2023-04-27T00:51:34.256Z,8.71
2023-04-27T00:54:02.591Z,8.69
2023-04-27T00:56:31.888Z,8.68
2023-04-27T00:59:03.260Z,8.64
2023-04-27T01:01:33.473Z,8.64
2023-04-27T01:04:03.010Z,8.62
2023-04-27T01:06:31.980Z,8.62
2023-04-27T01:08:59.796Z,8.62
2023-04-27T01:11:29.375Z,8.60
2023-04-27T01:13:57.529Z,8.59
2023-04-27T01:16:25.306Z,8.55
2023-04-27T01:18:54.480Z,8.58
2023-04-27T01:21:24.994Z,8.55
2023-04-27T01:23:54.416Z,8.56
2023-04-27T01:26:22.510Z,8.54
2023-04-27T01:28:50.627Z,8.52
2023-04-27T01:31:18.647Z,8.50
2023-04-27T01:33:48.056Z,8.49
2023-04-27T01:36:16.010Z,8.47
2023-04-27T01:38:44.524Z,8.46
2023-04-27T01:41:15.474Z,8.45
2023-04-27T01:43:43.775Z,8.43
2023-04-27T01:46:15.655Z,8.42
2023-04-27T01:48:43.513Z,8.37
2023-04-27T01:51:12.223Z,8.36
2023-04-27T01:53:40.115Z,8.35
2023-04-27T01:56:07.914Z,8.34
2023-04-27T01:58:37.184Z,8.33
2023-04-27T02:01:05.502Z,8.30
2023-04-27T02:03:41.993Z,8.29
2023-04-27T02:06:10.351Z,8.24
2023-04-27T02:08:38.269Z,8.23
2023-04-27T02:11:07.241Z,8.23
2023-04-27T02:13:35.181Z,8.20
2023-04-27T02:16:05.246Z,8.19
2023-04-27T02:18:33.725Z,8.17
2023-04-27T02:21:01.851Z,8.15
2023-04-27T02:23:29.632Z,8.13
2023-04-27T02:25:57.426Z,8.10
2023-04-27T02:28:25.375Z,8.09
2023-04-27T02:30:54.663Z,8.07
2023-04-27T02:33:23.977Z,8.06
2023-04-27T02:35:51.946Z,8.03
2023-04-27T02:38:20.070Z,8.00
2023-04-27T02:40:47.937Z,7.99
2023-04-27T02:43:15.909Z,7.99
2023-04-27T02:45:43.606Z,7.95
2023-04-27T02:48:11.407Z,7.93
2023-04-27T02:50:42.934Z,7.94
2023-04-27T02:53:11.424Z,7.90
2023-04-27T02:55:39.434Z,7.88
2023-04-27T02:58:07.248Z,7.86
2023-04-27T03:00:35.168Z,7.85
2023-04-27T03:03:06.477Z,7.82
2023-04-27T03:05:34.543Z,7.79
2023-04-27T03:08:03.720Z,7.76
2023-04-27T03:10:31.591Z,7.72
2023-04-27T03:12:59.572Z,7.72
2023-04-27T03:15:29.386Z,7.70
2023-04-27T03:17:57.470Z,7.67
2023-04-27T03:20:25.468Z,7.64
2023-04-27T03:22:54.885Z,7.62
2023-04-27T03:25:24.150Z,7.62
2023-04-27T03:27:52.401Z,7.60
2023-04-27T03:30:20.886Z,7.57
2023-04-27T03:32:48.662Z,7.56
2023-04-27T03:35:16.827Z,7.53
2023-04-27T03:37:46.880Z,7.52
2023-04-27T03:40:15.451Z,7.49
2023-04-27T03:42:44.613Z,7.48
2023-04-27T03:45:13.050Z,7.44
2023-04-27T03:47:41.121Z,7.41
2023-04-27T03:50:09.754Z,7.40
2023-04-27T03:52:37.545Z,7.38
2023-04-27T03:55:06.984Z,7.35
2023-04-27T03:57:34.993Z,7.31
2023-04-27T04:00:07.050Z,7.32
2023-04-27T04:02:40.767Z,7.29
2023-04-27T04:05:09.951Z,7.28
2023-04-27T04:07:37.858Z,7.27
2023-04-27T04:10:06.961Z,7.23
2023-04-27T04:12:35.016Z,7.24
2023-04-27T04:15:05.124Z,7.23
2023-04-27T04:17:34.210Z,7.22
2023-04-27T04:20:07.024Z,7.18
2023-04-27T04:22:35.088Z,7.15
2023-04-27T04:25:04.662Z,7.15
2023-04-27T04:27:33.571Z,7.15
2023-04-27T04:30:01.856Z,7.12
2023-04-27T04:32:31.315Z,7.12
2023-04-27T04:35:01.432Z,7.09
2023-04-27T04:37:30.417Z,7.08
2023-04-27T04:39:58.385Z,7.06
2023-04-27T04:42:27.656Z,7.05
2023-04-27T04:44:55.792Z,7.04
2023-04-27T04:47:23.614Z,7.03
2023-04-27T04:49:54.245Z,7.03
2023-04-27T04:52:22.357Z,7.00
2023-04-27T04:54:52.910Z,7.00
2023-04-27T04:57:22.349Z,6.97
2023-04-27T04:59:50.454Z,6.99
2023-04-27T05:02:18.290Z,7.00
2023-04-27T05:04:46.407Z,7.02
2023-04-27T05:07:20.177Z,7.04
2023-04-27T05:09:51.316Z,7.05
2023-04-27T05:12:19.064Z,7.06
2023-04-27T05:14:47.488Z,7.09
2023-04-27T05:17:15.303Z,7.08
2023-04-27T05:19:43.115Z,7.10
2023-04-27T05:22:11.149Z,7.12
2023-04-27T05:24:40.996Z,7.17
2023-04-27T05:27:08.770Z,7.18
2023-04-27T05:29:36.522Z,7.22
2023-04-27T05:32:04.529Z,7.26
2023-04-27T05:34:32.386Z,7.29
2023-04-27T05:37:00.315Z,7.34
2023-04-27T05:39:28.148Z,7.38
2023-04-27T05:41:57.496Z,7.43
2023-04-27T05:44:28.511Z,7.46
2023-04-27T05:46:57.087Z,7.48
2023-04-27T05:49:25.043Z,7.53
2023-04-27T05:51:53.692Z,7.56
2023-04-27T05:54:21.685Z,7.61
2023-04-27T05:56:50.342Z,7.64
2023-04-27T05:59:19.588Z,7.70
2023-04-27T06:01:47.431Z,7.72
2023-04-27T06:04:15.418Z,7.76
2023-04-27T06:06:44.960Z,7.80
2023-04-27T06:09:16.033Z,7.85
2023-04-27T06:11:44.784Z,7.91
2023-04-27T06:14:12.955Z,8.00
2023-04-27T06:16:42.110Z,8.10
2023-04-27T06:19:10.037Z,8.14
2023-04-27T06:21:38.171Z,8.19
2023-04-27T06:24:06.484Z,8.23
2023-04-27T06:26:34.620Z,8.27
2023-04-27T06:29:07.821Z,8.33
2023-04-27T06:31:36.164Z,8.36
2023-04-27T06:34:05.494Z,8.42
2023-04-27T06:36:33.286Z,8.45
2023-04-27T06:39:01.645Z,8.49
2023-04-27T06:41:29.506Z,8.54
2023-04-27T06:43:58.932Z,8.60
2023-04-27T06:46:27.500Z,8.68
2023-04-27T06:48:55.434Z,8.73
2023-04-27T06:51:24.718Z,8.83
2023-04-27T06:53:53.184Z,8.88
2023-04-27T06:56:21.062Z,8.97
2023-04-27T06:58:48.851Z,9.05
2023-04-27T07:01:16.853Z,9.14
2023-04-27T07:03:44.794Z,9.25
2023-04-27T07:06:12.716Z,9.36
2023-04-27T07:08:42.054Z,9.48
2023-04-27T07:11:09.959Z,9.57
2023-04-27T07:13:37.794Z,9.67
2023-04-27T07:16:06.511Z,9.77
2023-04-27T07:18:34.299Z,9.87
2023-04-27T07:21:02.299Z,9.96
2023-04-27T07:23:30.202Z,10.05
2023-04-27T07:26:00.064Z,10.16
2023-04-27T07:28:29.308Z,10.24
2023-04-27T07:30:58.205Z,10.33
2023-04-27T07:33:27.788Z,10.42
2023-04-27T07:35:56.297Z,10.50
2023-04-27T07:38:24.449Z,10.60
2023-04-27T07:40:52.463Z,10.68
2023-04-27T07:43:23.201Z,10.79
2023-04-27T07:45:51.049Z,10.88
2023-04-27T07:48:19.339Z,10.97
2023-04-27T07:50:47.653Z,11.06
2023-04-27T07:53:16.008Z,11.13
2023-04-27T07:55:44.816Z,11.20
2023-04-27T07:58:12.677Z,11.27
2023-04-27T08:00:41.910Z,11.35
2023-04-27T08:03:09.911Z,11.40
2023-04-27T08:05:38.355Z,11.46
2023-04-27T08:08:07.061Z,11.52
2023-04-27T08:10:35.108Z,11.56
2023-04-27T08:13:02.946Z,11.62
2023-04-27T08:15:30.900Z,11.67
2023-04-27T08:18:00.138Z,11.73
2023-04-27T08:20:28.141Z,11.76
2023-04-27T08:22:55.913Z,11.79
2023-04-27T08:25:23.710Z,11.82
2023-04-27T08:27:51.502Z,11.85
2023-04-27T08:30:19.579Z,11.88
2023-04-27T08:32:47.694Z,11.92
2023-04-27T08:35:17.043Z,11.98
2023-04-27T08:37:45.065Z,12.02
2023-04-27T08:40:13.677Z,12.06
2023-04-27T08:42:54.290Z,12.13
2023-04-27T08:45:23.386Z,12.18
2023-04-27T08:47:51.529Z,12.25
2023-04-27T08:50:21.384Z,12.32
2023-04-27T08:52:49.740Z,12.36
2023-04-27T08:55:17.588Z,12.40
2023-04-27T08:57:56.227Z,12.46
2023-04-27T09:00:25.595Z,12.48
2023-04-27T09:02:53.684Z,12.53
2023-04-27T09:05:24.526Z,12.59
2023-04-27T09:08:00.197Z,12.63
2023-04-27T09:10:29.590Z,12.64
2023-04-27T09:12:59.015Z,12.66
2023-04-27T09:15:27.041Z,12.66
2023-04-27T09:17:56.492Z,12.69
2023-04-27T09:20:27.252Z,12.70
2023-04-27T09:22:56.013Z,12.69
2023-04-27T09:25:25.194Z,12.71
2023-04-27T09:27:53.155Z,12.73
2023-04-27T09:30:21.684Z,12.74
2023-04-27T09:32:54.591Z,12.78
2023-04-27T09:35:24.437Z,12.79
2023-04-27T09:37:54.712Z,12.82
2023-04-27T09:40:26.600Z,12.84
2023-04-27T09:42:55.641Z,12.84
2023-04-27T09:45:24.159Z,12.87
2023-04-27T09:47:52.037Z,12.88
2023-04-27T09:50:20.299Z,12.91
2023-04-27T09:52:48.346Z,12.93
2023-04-27T09:55:20.863Z,12.99
2023-04-27T09:57:56.604Z,13.00
2023-04-27T10:00:38.489Z,13.06
2023-04-27T10:03:18.400Z,13.12
2023-04-27T10:06:25.327Z,13.18
2023-04-27T10:08:53.228Z,13.22
2023-04-27T10:11:23.091Z,13.30
2023-04-27T10:13:55.901Z,13.36
2023-04-27T10:16:23.738Z,13.09
2023-04-27T10:18:56.421Z,13.39
2023-04-27T10:21:24.706Z,13.14
2023-04-27T10:23:54.408Z,13.42
2023-04-27T10:26:28.128Z,13.50
2023-04-27T10:29:05.502Z,13.51
2023-04-27T10:31:33.841Z,13.50
2023-04-27T10:34:09.631Z,13.54
2023-04-27T10:36:38.192Z,13.52
2023-04-27T10:39:17.000Z,13.55
2023-04-27T10:41:54.740Z,13.57
2023-04-27T10:44:28.430Z,13.58
2023-04-27T10:46:57.439Z,13.59
2023-04-27T10:49:25.235Z,13.59
2023-04-27T10:51:53.151Z,13.60
2023-04-27T10:54:21.870Z,13.59
2023-04-27T10:56:52.971Z,13.61
2023-04-27T10:59:21.204Z,13.61
2023-04-27T11:01:51.394Z,13.65
2023-04-27T11:04:19.522Z,13.66
2023-04-27T11:06:47.827Z,13.70
2023-04-27T11:09:26.705Z,13.74
2023-04-27T11:11:56.005Z,13.74
2023-04-27T11:14:23.931Z,13.76
2023-04-27T11:16:52.142Z,13.77
2023-04-27T11:19:19.978Z,13.79
2023-04-27T11:21:47.862Z,13.80
2023-04-27T11:24:15.770Z,13.80
2023-04-27T11:26:43.848Z,13.81
2023-04-27T11:29:14.011Z,13.84
2023-04-27T11:31:47.606Z,13.83
2023-04-27T11:34:22.626Z,13.85
2023-04-27T11:39:36.126Z,13.88
2023-04-27T11:42:18.278Z,13.91
2023-04-27T11:44:53.323Z,13.97
2023-04-27T11:47:22.567Z,14.02
2023-04-27T11:49:51.609Z,14.10
2023-04-27T11:52:19.745Z,14.16
2023-04-27T11:54:49.216Z,14.23
2023-04-27T11:57:17.195Z,14.27
2023-04-27T11:59:45.136Z,14.31
2023-04-27T12:02:14.763Z,14.35
2023-04-27T12:04:43.138Z,14.36
2023-04-27T12:07:12.251Z,14.40
2023-04-27T12:09:40.121Z,14.43
2023-04-27T12:12:08.594Z,14.46
2023-04-27T12:14:36.533Z,14.49
2023-04-27T12:17:04.662Z,14.51
2023-04-27T12:19:33.936Z,14.54
2023-04-27T12:22:02.017Z,14.52
2023-04-27T12:24:29.873Z,14.53
2023-04-27T12:26:58.027Z,14.53
2023-04-27T12:29:27.081Z,14.54
2023-04-27T12:31:54.985Z,14.54
2023-04-27T12:34:22.775Z,14.54
2023-04-27T12:36:52.318Z,14.57
2023-04-27T12:39:21.492Z,14.55
2023-04-27T12:41:50.373Z,14.55
2023-04-27T12:44:19.259Z,14.53
2023-04-27T12:46:48.454Z,14.53
2023-04-27T12:49:17.349Z,14.51
2023-04-27T12:51:45.518Z,14.51
2023-04-27T12:54:15.137Z,14.53
2023-04-27T12:56:43.312Z,14.54
2023-04-27T12:59:11.280Z,14.54
2023-04-27T13:01:39.217Z,14.55
2023-04-27T13:04:09.166Z,14.59
2023-04-27T13:06:38.194Z,14.61
2023-04-27T13:09:06.766Z,14.62
2023-04-27T13:11:36.081Z,14.65
2023-04-27T13:14:04.917Z,14.66
2023-04-27T13:16:32.794Z,14.69
2023-04-27T13:19:00.681Z,14.72
2023-04-27T13:21:29.464Z,14.76
2023-04-27T13:24:00.015Z,14.82
2023-04-27T13:26:28.142Z,14.87
2023-04-27T13:28:57.998Z,14.93
2023-04-27T13:31:26.088Z,14.95
2023-04-27T13:33:54.719Z,15.01
2023-04-27T13:36:22.692Z,15.01
2023-04-27T13:38:50.899Z,15.03
2023-04-27T13:41:18.957Z,15.05
2023-04-27T13:43:46.839Z,15.07
2023-04-27T13:46:16.146Z,15.10
2023-04-27T13:48:44.181Z,15.13
2023-04-27T13:51:12.158Z,15.14
2023-04-27T13:53:40.119Z,15.19
2023-04-27T13:56:08.037Z,15.22
2023-04-27T13:58:36.531Z,15.25
2023-04-27T14:01:04.521Z,15.28
2023-04-27T14:03:34.272Z,15.33
2023-04-27T14:06:02.743Z,15.33
2023-04-27T14:08:30.556Z,15.37
2023-04-27T14:10:59.082Z,15.40
2023-04-27T14:13:27.034Z,15.45
2023-04-27T14:15:54.859Z,15.48
2023-04-27T14:18:29.778Z,15.51
2023-04-27T14:21:01.741Z,15.58
2023-04-27T14:23:30.465Z,15.60
2023-04-27T14:25:58.363Z,15.63
2023-04-27T14:28:26.411Z,15.66
2023-04-27T14:30:54.303Z,15.69
2023-04-27T14:33:22.110Z,15.73
2023-04-27T14:35:50.018Z,15.76
2023-04-27T14:38:19.192Z,15.80
2023-04-27T14:40:47.126Z,15.80
2023-04-27T14:43:14.953Z,15.80
2023-04-27T14:45:51.654Z,15.82
2023-04-27T14:48:22.014Z,15.83
2023-04-27T14:50:49.896Z,15.83
2023-04-27T14:53:19.223Z,15.85
2023-04-27T14:55:47.188Z,15.83
2023-04-27T14:58:15.403Z,15.84
2023-04-27T15:00:43.425Z,15.82
2023-04-27T15:03:11.544Z,15.81
2023-04-27T15:05:39.694Z,15.82
2023-04-27T15:08:07.459Z,15.82
2023-04-27T15:10:36.786Z,15.83
2023-04-27T15:13:04.706Z,15.80
2023-04-27T15:15:32.564Z,15.80
2023-04-27T15:18:00.601Z,15.78
2023-04-27T15:20:28.511Z,15.77
2023-04-27T15:22:56.474Z,15.77
2023-04-27T15:25:24.385Z,15.75
2023-04-27T15:27:53.889Z,15.77
2023-04-27T15:30:21.626Z,15.72
2023-04-27T15:32:49.551Z,15.70
2023-04-27T15:35:17.760Z,15.69
2023-04-27T15:37:45.634Z,15.67
2023-04-27T15:40:13.743Z,15.65
2023-04-27T15:42:41.594Z,15.63
2023-04-27T15:45:11.725Z,15.62
2023-04-27T15:47:39.731Z,15.56
2023-04-27T15:50:09.322Z,15.54
2023-04-27T15:52:37.208Z,15.49
2023-04-27T15:55:05.572Z,15.46
2023-04-27T15:57:35.886Z,15.42
2023-04-27T16:00:07.647Z,15.38
2023-04-27T16:02:41.237Z,15.36
2023-04-27T16:05:09.861Z,15.33
2023-04-27T16:07:39.567Z,15.30
2023-04-27T16:10:08.933Z,15.26
2023-04-27T16:12:36.867Z,15.22
2023-04-27T16:15:05.861Z,15.18
2023-04-27T16:17:37.000Z,15.13
2023-04-27T16:20:07.775Z,15.08
2023-04-27T16:22:36.007Z,15.02
2023-04-27T16:25:04.041Z,14.97
2023-04-27T16:27:32.029Z,14.93
2023-04-27T16:29:59.805Z,14.89
2023-04-27T16:32:27.663Z,14.84
2023-04-27T16:34:55.440Z,14.81
2023-04-27T16:37:24.598Z,14.79
2023-04-27T16:39:52.474Z,14.73
2023-04-27T16:42:20.786Z,14.69
2023-04-27T16:44:48.652Z,14.66
2023-04-27T16:47:16.420Z,14.63
2023-04-27T16:49:44.400Z,14.60
2023-04-27T16:52:12.600Z,14.56
2023-04-27T16:54:41.762Z,14.56
2023-04-27T16:57:09.615Z,14.50
2023-04-27T16:59:37.669Z,14.46
2023-04-27T17:02:16.999Z,14.43
2023-04-27T17:04:51.577Z,14.39
2023-04-27T17:07:19.564Z,14.37
2023-04-27T17:09:48.826Z,14.36
2023-04-27T17:12:17.225Z,14.33
2023-04-27T17:14:45.031Z,14.30
2023-04-27T17:17:12.811Z,14.29
2023-04-27T17:19:40.684Z,14.28
2023-04-27T17:22:11.277Z,14.26
2023-04-27T17:24:39.253Z,14.25
2023-04-27T17:27:08.384Z,14.26
2023-04-27T17:29:37.253Z,14.23
2023-04-27T17:32:05.213Z,14.20
2023-04-27T17:34:33.071Z,14.18
2023-04-27T17:37:01.001Z,14.15
2023-04-27T17:39:29.181Z,14.10
2023-04-27T17:41:57.283Z,14.08
2023-04-27T17:44:26.607Z,14.05
2023-04-27T17:46:54.558Z,14.00
2023-04-27T17:49:22.478Z,13.96
2023-04-27T17:51:50.579Z,13.93
2023-04-27T17:54:18.458Z,13.89
2023-04-27T17:56:46.534Z,13.86
2023-04-27T17:59:14.576Z,13.82
2023-04-27T18:01:43.866Z,13.79
2023-04-27T18:04:11.999Z,13.76
2023-04-27T18:06:39.994Z,13.72
2023-04-27T18:09:08.002Z,13.70
2023-04-27T18:11:36.273Z,13.67
2023-04-27T18:14:04.190Z,13.63
2023-04-27T18:16:31.996Z,13.59
2023-04-27T18:19:01.264Z,13.58
2023-04-27T18:21:30.049Z,13.52
2023-04-27T18:23:58.264Z,13.50
2023-04-27T18:26:26.333Z,13.46
2023-04-27T18:28:54.325Z,13.46
2023-04-27T18:31:24.170Z,13.43
2023-04-27T18:33:52.291Z,13.40
2023-04-27T18:36:21.598Z,13.41
2023-04-27T18:38:49.630Z,13.38
2023-04-27T18:41:18.016Z,13.37
2023-04-27T18:43:45.975Z,13.35
2023-04-27T18:46:14.034Z,13.34
2023-04-27T18:48:42.261Z,13.31
2023-04-27T18:51:10.178Z,13.30
2023-04-27T18:53:39.391Z,13.31
2023-04-27T18:56:08.905Z,13.28
2023-04-27T18:58:37.372Z,13.27
2023-04-27T19:01:05.232Z,13.25
2023-04-27T19:03:33.391Z,13.23
2023-04-27T19:06:01.304Z,13.21
2023-04-27T19:08:29.282Z,13.20
2023-04-27T19:10:58.619Z,13.22
2023-04-27T19:13:27.798Z,13.17
2023-04-27T19:15:55.859Z,13.17
2023-04-27T19:18:23.683Z,13.13
2023-04-27T19:20:51.618Z,13.13
2023-04-27T19:23:20.137Z,13.10
2023-04-27T19:25:48.303Z,13.09
2023-04-27T19:28:19.861Z,13.08
2023-04-27T19:30:48.603Z,13.05
2023-04-27T19:33:19.683Z,13.04
2023-04-27T19:35:48.465Z,13.02
2023-04-27T19:38:16.310Z,12.99
2023-04-27T19:40:44.212Z,12.97
2023-04-27T19:43:12.010Z,12.95
2023-04-27T19:45:41.926Z,12.94
2023-04-27T19:48:09.907Z,12.91
2023-04-27T19:50:42.311Z,12.88
2023-04-27T19:53:10.771Z,12.84
2023-04-27T19:55:40.169Z,12.84
2023-04-27T19:58:08.007Z,12.81
2023-04-27T20:00:35.793Z,12.82
2023-04-27T20:03:06.383Z,12.84
2023-04-27T20:05:35.787Z,12.81
2023-04-27T20:08:03.687Z,12.81
2023-04-27T20:10:31.656Z,12.81
2023-04-27T20:12:59.539Z,12.81
2023-04-27T20:15:27.659Z,12.80
2023-04-27T20:17:55.550Z,12.79
2023-04-27T20:20:25.060Z,12.81
2023-04-27T20:22:52.878Z,12.78
2023-04-27T20:25:20.990Z,12.78
2023-04-27T20:27:48.798Z,12.78
2023-04-27T20:30:16.635Z,12.78
2023-04-27T20:32:46.488Z,12.78
2023-04-27T20:35:14.855Z,12.78
2023-04-27T20:37:44.488Z,12.78
2023-04-27T20:40:17.394Z,12.75
2023-04-27T20:42:45.636Z,12.74
2023-04-27T20:45:13.753Z,12.74
2023-04-27T20:47:42.092Z,12.74
2023-04-27T20:50:10.091Z,12.72
2023-04-27T20:52:38.012Z,12.73
2023-04-27T20:55:07.794Z,12.74
2023-04-27T20:57:35.794Z,12.72
2023-04-27T21:00:04.864Z,12.72
2023-04-27T21:02:32.839Z,12.71
2023-04-27T21:05:00.765Z,12.71
2023-04-27T21:07:28.827Z,12.71
2023-04-27T21:09:56.813Z,12.70
2023-04-27T21:12:26.768Z,12.71
2023-04-27T21:14:54.669Z,12.68
2023-04-27T21:17:22.470Z,12.68
2023-04-27T21:19:50.374Z,12.67
2023-04-27T21:22:18.317Z,12.67
2023-04-27T21:24:47.467Z,12.67
2023-04-27T21:27:15.457Z,12.66
2023-04-27T21:29:44.804Z,12.67
2023-04-27T21:32:12.749Z,12.65
2023-04-27T21:34:40.706Z,12.64
2023-04-27T21:37:08.533Z,12.64
2023-04-27T21:39:36.389Z,12.64
2023-04-27T21:42:04.481Z,12.62
2023-04-27T21:44:32.295Z,12.63
2023-04-27T21:47:02.001Z,12.63
2023-04-27T21:49:29.796Z,12.60
2023-04-27T21:51:57.649Z,12.61
2023-04-27T21:54:25.715Z,12.61
2023-04-27T21:56:53.536Z,12.60
2023-04-27T21:59:21.624Z,12.59
2023-04-27T22:01:49.699Z,12.59
2023-04-27T22:04:20.230Z,12.61
2023-04-27T22:06:48.820Z,12.58
2023-04-27T22:09:16.674Z,12.59
2023-04-27T22:11:44.632Z,12.59
2023-04-27T22:14:12.471Z,12.57
2023-04-27T22:16:40.540Z,12.58
2023-04-27T22:19:09.187Z,12.57
2023-04-27T22:21:38.379Z,12.59
2023-04-27T22:24:06.531Z,12.57
2023-04-27T22:26:34.385Z,12.57
2023-04-27T22:29:02.171Z,12.57
2023-04-27T22:31:32.042Z,12.57
2023-04-27T22:34:00.114Z,12.56
2023-04-27T22:36:28.844Z,12.55
2023-04-27T22:38:58.323Z,12.56
2023-04-27T22:41:26.247Z,12.55
2023-04-27T22:43:54.024Z,12.53
2023-04-27T22:46:23.353Z,12.53
2023-04-27T22:48:52.574Z,12.52
2023-04-27T22:51:21.722Z,12.53
2023-04-27T22:53:49.855Z,12.53
2023-04-27T22:56:19.024Z,12.55
2023-04-27T22:58:46.862Z,12.54
2023-04-27T23:01:14.728Z,12.53
2023-04-27T23:03:42.637Z,12.53
2023-04-27T23:06:14.217Z,12.54
2023-04-27T23:08:44.100Z,12.51
2023-04-27T23:11:15.311Z,12.51
2023-04-27T23:13:44.644Z,12.53
2023-04-27T23:16:14.689Z,12.51
2023-04-27T23:18:42.864Z,12.51
2023-04-27T23:21:11.613Z,12.50
2023-04-27T23:23:39.479Z,12.50
2023-04-27T23:26:13.809Z,12.53
2023-04-27T23:28:41.946Z,12.49
2023-04-27T23:31:11.358Z,12.49
2023-04-27T23:33:39.453Z,12.48
2023-04-27T23:36:07.780Z,12.48
2023-04-27T23:38:35.697Z,12.46
2023-04-27T23:41:03.560Z,12.45
2023-04-27T23:43:31.626Z,12.44
2023-04-27T23:45:59.493Z,12.44
2023-04-27T23:48:28.752Z,12.45
2023-04-27T23:51:00.892Z,12.45
2023-04-27T23:53:29.328Z,12.41
2023-04-27T23:55:57.705Z,12.41
2023-04-27T23:58:26.142Z,12.41
